createdAt,value
2023-02-13T00:00:39.646Z,54.52
2023-02-13T00:03:23.034Z,54.69
2023-02-13T00:06:07.820Z,54.59
2023-02-13T00:08:50.602Z,54.51
2023-02-13T00:11:33.420Z,54.54
2023-02-13T00:14:16.279Z,54.67
2023-02-13T00:16:59.686Z,54.31
2023-02-13T00:19:42.585Z,54.54
2023-02-13T00:22:27.262Z,54.88
2023-02-13T00:25:10.542Z,54.66
2023-02-13T00:27:54.305Z,54.61
2023-02-13T00:30:37.652Z,54.47
2023-02-13T00:33:20.669Z,54.38
2023-02-13T00:36:08.000Z,54.37
2023-02-13T00:38:52.449Z,54.34
2023-02-13T00:41:36.398Z,54.44
2023-02-13T00:44:19.213Z,54.21
2023-02-13T00:47:02.021Z,54.44
2023-02-13T00:49:44.837Z,54.28
2023-02-13T00:52:27.624Z,54.38
2023-02-13T00:55:11.776Z,54.29
2023-02-13T00:57:54.760Z,54.18
2023-02-13T01:00:37.594Z,54.31
2023-02-13T01:03:22.908Z,54.05
2023-02-13T01:06:06.619Z,54.20
2023-02-13T01:08:49.661Z,54.21
2023-02-13T01:11:33.942Z,54.13
2023-02-13T01:14:16.926Z,54.38
2023-02-13T01:16:59.773Z,54.66
2023-02-13T01:19:42.974Z,54.19
2023-02-13T01:22:25.995Z,54.31
2023-02-13T01:25:09.318Z,54.34
2023-02-13T01:27:53.525Z,54.71
2023-02-13T01:30:37.219Z,54.36
2023-02-13T01:33:20.411Z,54.40
2023-02-13T01:36:07.673Z,54.41
2023-02-13T01:38:54.882Z,54.29
2023-02-13T01:41:37.759Z,54.47
2023-02-13T01:44:48.854Z,54.65
2023-02-13T01:47:41.323Z,54.40
2023-02-13T01:50:30.688Z,54.34
2023-02-13T01:53:19.244Z,54.41
2023-02-13T01:56:06.688Z,54.54
2023-02-13T01:58:54.120Z,54.50
2023-02-13T02:01:38.980Z,54.51
2023-02-13T02:04:25.499Z,54.40
2023-02-13T02:07:12.848Z,54.41
2023-02-13T02:09:59.334Z,54.57
2023-02-13T02:12:48.650Z,54.67
2023-02-13T02:15:33.260Z,54.79
2023-02-13T02:18:19.024Z,54.84
2023-02-13T02:21:35.088Z,54.66
2023-02-13T02:24:48.846Z,54.77
2023-02-13T02:27:47.327Z,54.63
2023-02-13T02:31:08.877Z,55.04
2023-02-13T02:34:04.698Z,54.83
2023-02-13T02:37:06.802Z,55.04
2023-02-13T02:39:59.050Z,54.74
2023-02-13T02:42:58.635Z,54.86
2023-02-13T02:45:52.375Z,54.76
2023-02-13T02:49:02.458Z,54.74
2023-02-13T02:51:56.924Z,54.53
2023-02-13T02:55:02.373Z,54.24
2023-02-13T02:58:07.444Z,54.65
2023-02-13T03:01:10.706Z,54.51
2023-02-13T03:04:14.042Z,54.36
2023-02-13T03:07:02.616Z,54.54
2023-02-13T03:10:07.037Z,54.54
2023-02-13T03:13:12.918Z,54.39
2023-02-13T03:16:16.930Z,54.21
2023-02-13T03:19:17.532Z,54.50
2023-02-13T03:22:23.733Z,54.63
2023-02-13T03:25:13.458Z,54.60
2023-02-13T03:28:18.400Z,54.54
2023-02-13T03:31:09.714Z,54.83
2023-02-13T03:34:01.149Z,54.51
2023-02-13T03:37:07.381Z,54.66
2023-02-13T03:40:01.491Z,54.94
2023-02-13T03:42:49.777Z,54.88
2023-02-13T03:45:57.316Z,54.63
2023-02-13T03:49:00.652Z,54.57
2023-02-13T03:51:49.005Z,54.50
2023-02-13T03:54:54.333Z,54.50
2023-02-13T03:57:59.199Z,54.60
2023-02-13T04:00:45.979Z,54.60
2023-02-13T04:03:36.610Z,54.57
2023-02-13T04:06:23.049Z,54.66
2023-02-13T04:09:05.922Z,54.59
2023-02-13T04:11:57.258Z,54.56
2023-02-13T04:14:47.444Z,54.54
2023-02-13T04:17:34.542Z,54.37
2023-02-13T04:20:17.465Z,54.32
2023-02-13T04:23:07.345Z,54.23
2023-02-13T04:25:53.201Z,54.21
2023-02-13T04:28:36.141Z,54.42
2023-02-13T04:31:20.457Z,54.51
2023-02-13T04:34:03.351Z,54.59
2023-02-13T04:36:46.156Z,54.42
2023-02-13T04:39:28.913Z,54.42
2023-02-13T04:42:11.676Z,54.28
2023-02-13T04:44:54.482Z,54.59
2023-02-13T04:47:38.626Z,54.36
2023-02-13T04:50:22.199Z,54.49
2023-02-13T04:53:04.972Z,54.49
2023-02-13T04:55:47.770Z,54.65
2023-02-13T04:58:30.586Z,54.38
2023-02-13T05:01:14.162Z,54.64
2023-02-13T05:03:58.263Z,54.67
2023-02-13T05:06:41.363Z,54.64
2023-02-13T05:09:24.201Z,54.61
2023-02-13T05:12:07.565Z,54.56
2023-02-13T05:14:50.494Z,54.57
2023-02-13T05:17:33.353Z,54.34
2023-02-13T05:20:18.080Z,54.40
2023-02-13T05:23:18.259Z,54.43
2023-02-13T05:26:01.068Z,54.62
2023-02-13T05:29:01.647Z,54.50
2023-02-13T05:31:44.677Z,54.63
2023-02-13T05:34:28.855Z,54.61
2023-02-13T05:37:12.971Z,54.79
2023-02-13T05:39:55.699Z,54.89
2023-02-13T05:42:38.496Z,54.95
2023-02-13T05:45:21.249Z,55.04
2023-02-13T05:48:04.187Z,55.33
2023-02-13T05:50:47.563Z,55.15
2023-02-13T05:53:35.280Z,55.47
2023-02-13T05:56:18.184Z,54.99
2023-02-13T05:59:01.195Z,54.78
2023-02-13T06:01:44.010Z,54.48
2023-02-13T06:04:27.142Z,54.49
2023-02-13T06:07:09.949Z,54.09
2023-02-13T06:09:54.104Z,54.19
2023-02-13T06:12:36.912Z,54.05
2023-02-13T06:15:19.710Z,54.26
2023-02-13T06:18:02.507Z,54.17
2023-02-13T06:20:45.340Z,54.46
2023-02-13T06:23:28.276Z,54.30
2023-02-13T06:26:12.461Z,54.34
2023-02-13T06:28:55.264Z,54.37
2023-02-13T06:31:38.330Z,54.37
2023-02-13T06:34:21.095Z,54.58
2023-02-13T06:37:03.912Z,54.54
2023-02-13T06:39:46.672Z,54.33
2023-02-13T06:42:30.804Z,54.44
2023-02-13T06:45:14.324Z,54.68
2023-02-13T06:47:57.079Z,54.30
2023-02-13T06:50:39.876Z,54.47
2023-02-13T06:53:24.936Z,54.44
2023-02-13T06:56:08.062Z,54.51
2023-02-13T06:58:52.237Z,54.60
2023-02-13T07:01:34.982Z,54.41
2023-02-13T07:04:17.821Z,54.54
2023-02-13T07:07:00.624Z,54.53
2023-02-13T07:09:43.408Z,54.17
2023-02-13T07:12:26.325Z,54.39
2023-02-13T07:15:11.237Z,54.36
2023-02-13T07:17:57.458Z,54.38
2023-02-13T07:20:40.245Z,54.36
2023-02-13T07:23:22.989Z,54.53
2023-02-13T07:26:06.190Z,54.53
2023-02-13T07:28:50.013Z,54.34
2023-02-13T07:31:35.945Z,54.47
2023-02-13T07:34:18.779Z,54.53
2023-02-13T07:37:01.578Z,54.26
2023-02-13T07:39:44.421Z,54.22
2023-02-13T07:42:27.230Z,54.55
2023-02-13T07:45:11.934Z,54.48
2023-02-13T07:47:57.923Z,54.51
2023-02-13T07:50:40.667Z,54.29
2023-02-13T07:53:23.454Z,54.66
2023-02-13T07:56:07.702Z,54.50
2023-02-13T07:58:50.510Z,54.12
2023-02-13T08:01:33.292Z,54.41
2023-02-13T08:04:17.464Z,54.41
2023-02-13T08:07:00.249Z,53.95
2023-02-13T08:10:02.962Z,54.34
2023-02-13T08:12:46.305Z,54.29
2023-02-13T08:15:29.164Z,54.32
2023-02-13T08:18:12.299Z,54.25
2023-02-13T08:20:56.417Z,54.19
2023-02-13T08:23:39.428Z,54.43
2023-02-13T08:26:22.333Z,53.97
2023-02-13T08:29:05.944Z,53.77
2023-02-13T08:31:48.806Z,54.04
2023-02-13T08:34:31.684Z,54.57
2023-02-13T08:37:17.640Z,54.44
2023-02-13T08:40:00.414Z,54.42
2023-02-13T08:42:43.596Z,54.29
2023-02-13T08:45:26.384Z,54.04
2023-02-13T08:48:09.195Z,53.49
2023-02-13T08:50:51.965Z,53.82
2023-02-13T08:53:36.862Z,53.90
2023-02-13T08:56:19.665Z,53.79
2023-02-13T08:59:02.498Z,53.50
2023-02-13T09:01:45.494Z,53.38
2023-02-13T09:04:28.417Z,53.54
2023-02-13T09:07:11.171Z,53.67
2023-02-13T09:09:55.328Z,53.81
2023-02-13T09:12:38.343Z,53.58
2023-02-13T09:15:21.232Z,53.49
2023-02-13T09:18:04.006Z,53.33
2023-02-13T09:20:46.802Z,52.97
2023-02-13T09:23:32.395Z,52.70
2023-02-13T09:26:19.625Z,53.00
2023-02-13T09:29:03.196Z,52.77
2023-02-13T09:31:46.090Z,52.59
2023-02-13T09:34:28.952Z,52.31
2023-02-13T09:37:11.732Z,52.11
2023-02-13T09:39:54.585Z,52.29
2023-02-13T09:42:39.550Z,52.02
2023-02-13T09:45:23.451Z,51.89
2023-02-13T09:48:06.868Z,51.89
2023-02-13T09:50:49.764Z,51.86
2023-02-13T09:53:33.464Z,51.71
2023-02-13T09:56:22.281Z,51.83
2023-02-13T09:59:16.558Z,51.57
2023-02-13T10:02:03.379Z,51.49
2023-02-13T10:04:53.052Z,51.77
2023-02-13T10:07:46.433Z,51.64
2023-02-13T10:10:39.681Z,51.61
2023-02-13T10:13:42.097Z,51.42
2023-02-13T10:16:31.100Z,51.36
2023-02-13T10:19:24.131Z,51.02
2023-02-13T10:22:12.977Z,51.04
2023-02-13T10:24:59.332Z,50.76
2023-02-13T10:27:46.386Z,50.97
2023-02-13T10:30:33.264Z,50.72
2023-02-13T10:33:22.904Z,50.37
2023-02-13T10:36:15.131Z,50.59
2023-02-13T10:39:02.828Z,50.55
2023-02-13T10:41:51.996Z,49.96
2023-02-13T10:44:47.421Z,50.44
2023-02-13T10:47:52.287Z,50.42
2023-02-13T10:50:44.256Z,50.45
2023-02-13T10:53:44.244Z,50.61
2023-02-13T10:56:34.615Z,50.21
2023-02-13T10:59:41.132Z,50.28
2023-02-13T11:02:26.781Z,50.40
2023-02-13T11:05:18.358Z,50.26
2023-02-13T11:08:03.322Z,50.19
2023-02-13T11:10:46.227Z,50.33
2023-02-13T11:13:30.888Z,50.36
2023-02-13T11:16:13.994Z,49.73
2023-02-13T11:18:57.433Z,50.06
2023-02-13T11:21:40.310Z,49.99
2023-02-13T11:24:27.063Z,49.91
2023-02-13T11:27:13.814Z,49.84
2023-02-13T11:29:58.945Z,49.87
2023-02-13T11:32:41.743Z,49.87
2023-02-13T11:35:30.550Z,49.86
2023-02-13T11:38:24.576Z,49.95
2023-02-13T11:41:11.996Z,49.69
2023-02-13T11:44:01.141Z,49.77
2023-02-13T11:46:48.820Z,49.75
2023-02-13T11:49:34.997Z,49.58
2023-02-13T11:52:27.034Z,49.84
2023-02-13T11:55:26.523Z,49.70
2023-02-13T11:58:25.870Z,49.59
2023-02-13T12:01:12.201Z,49.42
2023-02-13T12:04:03.753Z,49.52
2023-02-13T12:07:01.363Z,49.40
2023-02-13T12:09:46.464Z,49.34
2023-02-13T12:12:36.685Z,49.50
2023-02-13T12:15:24.006Z,49.29
2023-02-13T12:18:17.487Z,49.21
2023-02-13T12:21:11.332Z,49.21
2023-02-13T12:24:01.985Z,49.20
2023-02-13T12:26:49.373Z,49.21
2023-02-13T12:30:15.232Z,48.97
2023-02-13T12:33:04.010Z,48.85
2023-02-13T12:35:56.490Z,49.04
2023-02-13T12:38:55.370Z,49.00
2023-02-13T12:41:49.992Z,49.03
2023-02-13T12:45:00.095Z,48.83
2023-02-13T12:47:56.970Z,49.10
2023-02-13T12:50:58.146Z,49.00
2023-02-13T12:53:57.433Z,48.89
2023-02-13T12:57:00.437Z,48.93
2023-02-13T12:59:59.200Z,49.06
2023-02-13T13:03:03.709Z,48.90
2023-02-13T13:06:11.861Z,48.89
2023-02-13T13:09:21.283Z,48.65
2023-02-13T13:12:32.504Z,48.79
2023-02-13T13:15:26.578Z,48.50
2023-02-13T13:18:23.713Z,48.51
2023-02-13T13:21:18.179Z,48.83
2023-02-13T13:24:09.127Z,48.63
2023-02-13T13:26:54.212Z,48.80
2023-02-13T13:29:43.566Z,48.60
2023-02-13T13:32:29.193Z,48.76
2023-02-13T13:35:15.346Z,48.77
2023-02-13T13:38:10.045Z,48.74
2023-02-13T13:40:57.960Z,48.64
2023-02-13T13:43:58.608Z,48.63
2023-02-13T13:46:53.273Z,48.53
2023-02-13T13:49:44.680Z,48.32
2023-02-13T13:52:29.521Z,48.64
2023-02-13T13:55:52.796Z,48.32
2023-02-13T13:58:42.937Z,48.13
2023-02-13T14:01:29.326Z,48.15
2023-02-13T14:04:41.649Z,48.37
2023-02-13T14:07:25.808Z,48.14
2023-02-13T14:10:38.152Z,47.93
2023-02-13T14:13:32.267Z,47.39
2023-02-13T14:16:40.658Z,46.61
2023-02-13T14:19:27.922Z,46.25
2023-02-13T14:22:35.372Z,45.73
2023-02-13T14:25:25.304Z,45.42
2023-02-13T14:28:08.164Z,45.20
2023-02-13T14:30:53.983Z,44.49
2023-02-13T14:33:39.298Z,43.97
2023-02-13T14:36:27.153Z,43.63
2023-02-13T14:39:24.261Z,43.20
2023-02-13T14:42:24.975Z,43.17
2023-02-13T14:45:16.812Z,42.70
2023-02-13T14:48:06.210Z,42.16
2023-02-13T14:50:52.924Z,40.95
2023-02-13T14:53:50.533Z,53.08
2023-02-13T14:56:34.506Z,60.03
2023-02-13T14:59:21.016Z,62.97
2023-02-13T15:02:17.393Z,64.46
2023-02-13T15:05:03.634Z,65.52
2023-02-13T15:07:50.753Z,66.06
2023-02-13T15:10:42.243Z,66.55
2023-02-13T15:13:29.326Z,66.84
2023-02-13T15:16:15.502Z,67.40
2023-02-13T15:18:58.381Z,67.61
2023-02-13T15:21:49.928Z,67.88
2023-02-13T15:24:44.178Z,68.02
2023-02-13T15:27:28.694Z,68.25
2023-02-13T15:30:20.087Z,68.19
2023-02-13T15:33:05.375Z,68.41
2023-02-13T15:35:48.606Z,68.76
2023-02-13T15:38:33.304Z,68.85
2023-02-13T15:41:22.907Z,68.83
2023-02-13T15:44:06.676Z,68.92
2023-02-13T15:46:52.513Z,69.02
2023-02-13T15:49:39.987Z,69.18
2023-02-13T15:52:28.161Z,69.40
2023-02-13T15:55:19.964Z,69.53
2023-02-13T15:58:04.519Z,69.84
2023-02-13T16:00:47.193Z,69.84
2023-02-13T16:03:32.816Z,69.97
2023-02-13T16:06:31.813Z,70.13
2023-02-13T16:09:27.164Z,70.02
2023-02-13T16:12:21.075Z,70.19
2023-02-13T16:15:07.734Z,70.11
2023-02-13T16:17:50.827Z,70.26
2023-02-13T16:20:36.717Z,70.14
2023-02-13T16:23:21.307Z,70.51
2023-02-13T16:26:06.760Z,70.40
2023-02-13T16:28:49.878Z,70.53
2023-02-13T16:31:34.070Z,70.38
2023-02-13T16:34:25.627Z,70.51
2023-02-13T16:37:29.977Z,70.53
2023-02-13T16:40:41.085Z,70.60
2023-02-13T16:43:41.845Z,70.67
2023-02-13T16:46:31.813Z,70.68
2023-02-13T16:49:20.583Z,70.81
2023-02-13T16:52:13.041Z,71.14
2023-02-13T16:54:57.994Z,71.19
2023-02-13T16:57:41.829Z,71.12
2023-02-13T17:00:27.737Z,71.11
2023-02-13T17:03:10.733Z,71.11
2023-02-13T17:05:55.346Z,71.13
2023-02-13T17:08:38.101Z,71.30
2023-02-13T17:11:20.872Z,71.35
2023-02-13T17:14:03.636Z,71.46
2023-02-13T17:16:46.474Z,71.48
2023-02-13T17:19:29.745Z,71.34
2023-02-13T17:22:30.254Z,71.39
2023-02-13T17:25:18.658Z,71.21
2023-02-13T17:28:03.459Z,71.43
2023-02-13T17:30:47.509Z,71.58
2023-02-13T17:33:31.861Z,71.74
2023-02-13T17:36:15.047Z,71.58
2023-02-13T17:38:59.168Z,71.74
2023-02-13T17:41:42.945Z,71.72
2023-02-13T17:44:25.771Z,71.69
2023-02-13T17:47:08.577Z,71.86
2023-02-13T17:49:52.403Z,71.89
2023-02-13T17:52:38.333Z,72.04
2023-02-13T17:55:25.356Z,72.06
2023-02-13T17:58:08.158Z,72.03
2023-02-13T18:00:51.240Z,71.94
2023-02-13T18:03:34.139Z,72.20
2023-02-13T18:06:16.949Z,72.03
2023-02-13T18:08:59.725Z,72.10
2023-02-13T18:11:44.156Z,72.25
2023-02-13T18:14:31.105Z,72.21
2023-02-13T18:17:14.113Z,72.17
2023-02-13T18:19:57.844Z,72.18
2023-02-13T18:22:40.762Z,72.20
2023-02-13T18:25:23.841Z,72.27
2023-02-13T18:28:08.017Z,72.12
2023-02-13T18:30:50.956Z,72.16
2023-02-13T18:33:33.835Z,72.32
2023-02-13T18:36:16.724Z,72.31
2023-02-13T18:38:59.518Z,72.22
2023-02-13T18:41:42.513Z,72.40
2023-02-13T18:44:28.596Z,72.48
2023-02-13T18:47:11.963Z,72.46
2023-02-13T18:49:54.748Z,72.33
2023-02-13T18:52:37.864Z,72.69
2023-02-13T18:55:20.668Z,72.56
2023-02-13T18:58:03.625Z,72.76
2023-02-13T19:00:47.798Z,72.71
2023-02-13T19:03:30.609Z,72.91
2023-02-13T19:06:16.157Z,72.88
2023-02-13T19:09:00.436Z,72.82
2023-02-13T19:11:44.399Z,72.73
2023-02-13T19:14:27.232Z,72.74
2023-02-13T19:17:11.694Z,72.79
2023-02-13T19:19:55.702Z,72.74
2023-02-13T19:22:38.539Z,72.49
2023-02-13T19:25:22.115Z,72.36
2023-02-13T19:28:05.585Z,72.55
2023-02-13T19:30:48.468Z,72.46
2023-02-13T19:33:33.012Z,72.76
2023-02-13T19:36:19.282Z,72.69
2023-02-13T19:39:04.777Z,72.82
2023-02-13T19:41:47.665Z,72.74
2023-02-13T19:44:30.668Z,72.85
2023-02-13T19:47:13.453Z,72.89
2023-02-13T19:49:57.628Z,73.02
2023-02-13T19:52:40.425Z,73.08
2023-02-13T19:55:24.697Z,72.96
2023-02-13T19:58:08.441Z,73.10
2023-02-13T20:00:51.453Z,73.03
2023-02-13T20:03:34.273Z,73.34
2023-02-13T20:06:20.459Z,73.27
2023-02-13T20:09:06.376Z,73.25
2023-02-13T20:11:50.498Z,73.27
2023-02-13T20:14:33.905Z,73.42
2023-02-13T20:17:16.742Z,73.50
2023-02-13T20:19:59.531Z,73.48
2023-02-13T20:22:43.838Z,73.54
2023-02-13T20:25:30.024Z,73.39
2023-02-13T20:28:12.902Z,73.55
2023-02-13T20:30:55.906Z,73.50
2023-02-13T20:33:38.990Z,73.46
2023-02-13T20:36:23.852Z,73.31
2023-02-13T20:39:08.968Z,73.50
2023-02-13T20:41:51.962Z,73.29
2023-02-13T20:44:34.952Z,73.30
2023-02-13T20:47:17.957Z,73.22
2023-02-13T20:50:00.771Z,73.14
2023-02-13T20:52:43.634Z,73.28
2023-02-13T20:55:27.963Z,73.55
2023-02-13T20:58:10.738Z,73.53
2023-02-13T21:00:53.935Z,73.77
2023-02-13T21:03:36.812Z,73.58
2023-02-13T21:06:19.602Z,73.51
2023-02-13T21:09:03.757Z,73.49
2023-02-13T21:11:47.960Z,73.64
2023-02-13T21:14:30.765Z,73.79
2023-02-13T21:17:13.567Z,73.93
2023-02-13T21:19:56.368Z,73.92
2023-02-13T21:22:39.200Z,73.80
2023-02-13T21:25:22.187Z,73.76
2023-02-13T21:28:06.369Z,73.70
2023-02-13T21:30:49.219Z,73.93
2023-02-13T21:33:32.032Z,74.04
2023-02-13T21:36:14.833Z,74.09
2023-02-13T21:38:57.759Z,73.98
2023-02-13T21:41:41.369Z,73.99
2023-02-13T21:44:25.645Z,74.14
2023-02-13T21:47:08.603Z,74.18
2023-02-13T21:49:51.388Z,74.16
2023-02-13T21:52:35.861Z,74.07
2023-02-13T21:55:18.817Z,74.11
2023-02-13T21:58:01.692Z,74.39
2023-02-13T22:00:46.166Z,74.30
2023-02-13T22:03:29.449Z,74.26
2023-02-13T22:06:13.679Z,74.45
2023-02-13T22:08:57.972Z,74.46
2023-02-13T22:11:41.475Z,74.53
2023-02-13T22:14:24.357Z,74.15
2023-02-13T22:17:08.578Z,74.08
2023-02-13T22:19:51.445Z,74.22
2023-02-13T22:22:34.235Z,74.37
2023-02-13T22:25:17.493Z,75.07
2023-02-13T22:28:00.259Z,75.21
2023-02-13T22:30:43.524Z,75.18
2023-02-13T22:33:27.901Z,74.94
2023-02-13T22:36:11.092Z,74.94
2023-02-13T22:38:54.317Z,75.16
2023-02-13T22:41:37.706Z,75.22
2023-02-13T22:44:20.581Z,75.38
2023-02-13T22:47:03.472Z,75.25
2023-02-13T22:49:47.638Z,75.33
2023-02-13T22:52:30.422Z,75.13
2023-02-13T22:55:13.280Z,75.23
2023-02-13T22:57:56.068Z,74.89
2023-02-13T23:00:38.919Z,74.93
2023-02-13T23:03:21.961Z,75.01
2023-02-13T23:06:07.841Z,74.92
2023-02-13T23:08:53.384Z,74.88
2023-02-13T23:11:53.743Z,74.99
2023-02-13T23:14:36.849Z,74.62
2023-02-13T23:17:42.427Z,74.53
2023-02-13T23:20:26.036Z,74.46
2023-02-13T23:23:10.748Z,74.49
2023-02-13T23:25:53.517Z,74.51
2023-02-13T23:28:36.904Z,74.45
2023-02-13T23:31:19.793Z,74.62
2023-02-13T23:34:02.621Z,74.57
2023-02-13T23:36:45.465Z,74.53
2023-02-13T23:39:29.638Z,74.54
2023-02-13T23:42:12.925Z,74.52
2023-02-13T23:44:55.706Z,74.49
2023-02-13T23:47:38.844Z,74.43
2023-02-13T23:50:21.718Z,74.72
2023-02-13T23:53:04.529Z,74.50
2023-02-13T23:55:49.589Z,74.56
2023-02-13T23:58:32.490Z,74.41
